sensor_id;sensor_type;location;lat;lon;timestamp;P1;durP1;ratioP1;P2;durP2;ratioP2
64957;SDS011;51486;50.232;19.208;2024-01-15T00:00:15;12.60;;;5.50;;
64957;SDS011;51486;50.232;19.208;2024-01-15T00:02:41;12.90;;;5.10;;
64957;SDS011;51486;50.232;19.208;2024-01-15T00:05:06;13.90;;;5.63;;
64957;SDS011;51486;50.232;19.208;2024-01-15T00:07:32;12.53;;;5.43;;
64957;SDS011;51486;50.232;19.208;2024-01-15T00:09:57;12.53;;;5.03;;
64957;SDS011;51486;50.232;19.208;2024-01-15T00:12:23;13.60;;;4.40;;
64957;SDS011;51486;50.232;19.208;2024-01-15T00:14:48;14.60;;;5.17;;
64957;SDS011;51486;50.232;19.208;2024-01-15T00:17:13;11.20;;;5.50;;
64957;SDS011;51486;50.232;19.208;2024-01-15T00:19:39;10.00;;;4.13;;
64957;SDS011;51486;50.232;19.208;2024-01-15T00:22:04;13.60;;;5.70;;
64957;SDS011;51486;50.232;19.208;2024-01-15T00:24:29;12.70;;;5.40;;
64957;SDS011;51486;50.232;19.208;2024-01-15T00:26:55;15.77;;;5.73;;
64957;SDS011;51486;50.232;19.208;2024-01-15T00:29:20;11.53;;;4.70;;
64957;SDS011;51486;50.232;19.208;2024-01-15T00:31:46;7.90;;;4.63;;
64957;SDS011;51486;50.232;19.208;2024-01-15T00:34:12;11.37;;;5.57;;
64957;SDS011;51486;50.232;19.208;2024-01-15T00:36:37;10.03;;;4.13;;
64957;SDS011;51486;50.232;19.208;2024-01-15T00:39:02;8.67;;;5.07;;
64957;SDS011;51486;50.232;19.208;2024-01-15T00:41:30;7.20;;;3.93;;
64957;SDS011;51486;50.232;19.208;2024-01-15T00:43:55;11.90;;;4.90;;
64957;SDS011;51486;50.232;19.208;2024-01-15T00:46:21;14.20;;;5.27;;
64957;SDS011;51486;50.232;19.208;2024-01-15T00:48:47;9.13;;;4.53;;
64957;SDS011;51486;50.232;19.208;2024-01-15T00:51:12;9.10;;;4.53;;
64957;SDS011;51486;50.232;19.208;2024-01-15T00:53:38;12.20;;;4.80;;
64957;SDS011;51486;50.232;19.208;2024-01-15T00:56:03;13.97;;;5.07;;
64957;SDS011;51486;50.232;19.208;2024-01-15T00:58:29;10.03;;;4.47;;
64957;SDS011;51486;50.232;19.208;2024-01-15T01:00:54;10.20;;;4.00;;
64957;SDS011;51486;50.232;19.208;2024-01-15T01:03:20;11.87;;;5.10;;
64957;SDS011;51486;50.232;19.208;2024-01-15T01:05:45;12.90;;;5.87;;
64957;SDS011;51486;50.232;19.208;2024-01-15T01:08:11;7.90;;;4.03;;
64957;SDS011;51486;50.232;19.208;2024-01-15T01:10:37;12.87;;;5.27;;
64957;SDS011;51486;50.232;19.208;2024-01-15T01:13:02;11.97;;;5.00;;
64957;SDS011;51486;50.232;19.208;2024-01-15T01:15:28;13.10;;;5.33;;
64957;SDS011;51486;50.232;19.208;2024-01-15T01:17:53;11.20;;;4.97;;
64957;SDS011;51486;50.232;19.208;2024-01-15T01:20:18;8.77;;;4.77;;
64957;SDS011;51486;50.232;19.208;2024-01-15T01:22:44;7.37;;;3.57;;
64957;SDS011;51486;50.232;19.208;2024-01-15T01:25:09;12.20;;;5.10;;
64957;SDS011;51486;50.232;19.208;2024-01-15T01:27:35;9.63;;;4.83;;
64957;SDS011;51486;50.232;19.208;2024-01-15T01:30:01;7.53;;;4.23;;
64957;SDS011;51486;50.232;19.208;2024-01-15T01:32:26;8.80;;;4.27;;
64957;SDS011;51486;50.232;19.208;2024-01-15T01:34:52;14.40;;;4.80;;
64957;SDS011;51486;50.232;19.208;2024-01-15T01:37:17;7.47;;;3.70;;
64957;SDS011;51486;50.232;19.208;2024-01-15T01:39:43;11.47;;;4.00;;
64957;SDS011;51486;50.232;19.208;2024-01-15T01:42:09;8.20;;;3.90;;
64957;SDS011;51486;50.232;19.208;2024-01-15T01:44:35;6.90;;;3.73;;
64957;SDS011;51486;50.232;19.208;2024-01-15T01:47:00;8.23;;;3.70;;
64957;SDS011;51486;50.232;19.208;2024-01-15T01:49:29;8.03;;;3.47;;
64957;SDS011;51486;50.232;19.208;2024-01-15T01:51:57;8.17;;;4.03;;
64957;SDS011;51486;50.232;19.208;2024-01-15T01:54:29;7.27;;;3.67;;
64957;SDS011;51486;50.232;19.208;2024-01-15T01:56:56;7.97;;;3.50;;
64957;SDS011;51486;50.232;19.208;2024-01-15T01:59:22;6.53;;;3.73;;
64957;SDS011;51486;50.232;19.208;2024-01-15T02:01:49;6.47;;;3.50;;
64957;SDS011;51486;50.232;19.208;2024-01-15T02:04:15;8.13;;;3.63;;
64957;SDS011;51486;50.232;19.208;2024-01-15T02:06:41;14.70;;;3.93;;
64957;SDS011;51486;50.232;19.208;2024-01-15T02:09:07;8.33;;;4.07;;
64957;SDS011;51486;50.232;19.208;2024-01-15T02:11:33;11.57;;;3.57;;
64957;SDS011;51486;50.232;19.208;2024-01-15T02:13:58;16.53;;;5.40;;
64957;SDS011;51486;50.232;19.208;2024-01-15T02:16:24;12.80;;;4.37;;
64957;SDS011;51486;50.232;19.208;2024-01-15T02:18:49;8.40;;;3.70;;
64957;SDS011;51486;50.232;19.208;2024-01-15T02:21:15;6.97;;;3.17;;
64957;SDS011;51486;50.232;19.208;2024-01-15T02:23:40;8.67;;;3.97;;
64957;SDS011;51486;50.232;19.208;2024-01-15T02:26:06;8.37;;;3.87;;
64957;SDS011;51486;50.232;19.208;2024-01-15T02:28:33;7.30;;;3.50;;
64957;SDS011;51486;50.232;19.208;2024-01-15T02:30:59;8.07;;;3.43;;
64957;SDS011;51486;50.232;19.208;2024-01-15T02:33:24;11.40;;;4.23;;
64957;SDS011;51486;50.232;19.208;2024-01-15T02:35:50;10.47;;;3.50;;
64957;SDS011;51486;50.232;19.208;2024-01-15T02:38:15;15.80;;;3.93;;
64957;SDS011;51486;50.232;19.208;2024-01-15T02:40:41;7.93;;;2.83;;
64957;SDS011;51486;50.232;19.208;2024-01-15T02:43:06;11.30;;;3.33;;
64957;SDS011;51486;50.232;19.208;2024-01-15T02:45:32;10.93;;;3.93;;
64957;SDS011;51486;50.232;19.208;2024-01-15T02:47:57;6.57;;;3.17;;
64957;SDS011;51486;50.232;19.208;2024-01-15T02:50:23;5.43;;;2.60;;
64957;SDS011;51486;50.232;19.208;2024-01-15T02:52:48;7.70;;;3.30;;
64957;SDS011;51486;50.232;19.208;2024-01-15T02:55:13;7.10;;;3.00;;
64957;SDS011;51486;50.232;19.208;2024-01-15T02:57:39;7.10;;;2.77;;
64957;SDS011;51486;50.232;19.208;2024-01-15T03:00:04;6.77;;;2.87;;
64957;SDS011;51486;50.232;19.208;2024-01-15T03:02:30;7.13;;;2.93;;
64957;SDS011;51486;50.232;19.208;2024-01-15T03:04:58;9.77;;;2.97;;
64957;SDS011;51486;50.232;19.208;2024-01-15T03:07:23;5.43;;;3.13;;
64957;SDS011;51486;50.232;19.208;2024-01-15T03:09:49;9.27;;;2.33;;
64957;SDS011;51486;50.232;19.208;2024-01-15T03:12:14;7.23;;;2.67;;
64957;SDS011;51486;50.232;19.208;2024-01-15T03:14:40;4.73;;;1.87;;
64957;SDS011;51486;50.232;19.208;2024-01-15T03:17:06;8.57;;;2.70;;
64957;SDS011;51486;50.232;19.208;2024-01-15T03:19:34;5.87;;;2.37;;
64957;SDS011;51486;50.232;19.208;2024-01-15T03:22:00;8.10;;;2.93;;
64957;SDS011;51486;50.232;19.208;2024-01-15T03:24:27;3.77;;;2.10;;
64957;SDS011;51486;50.232;19.208;2024-01-15T03:26:52;6.60;;;2.57;;
64957;SDS011;51486;50.232;19.208;2024-01-15T03:29:18;6.53;;;2.53;;
64957;SDS011;51486;50.232;19.208;2024-01-15T03:31:43;10.33;;;2.97;;
64957;SDS011;51486;50.232;19.208;2024-01-15T03:34:09;7.63;;;2.80;;
64957;SDS011;51486;50.232;19.208;2024-01-15T03:36:34;7.87;;;2.33;;
64957;SDS011;51486;50.232;19.208;2024-01-15T03:38:59;3.50;;;2.50;;
64957;SDS011;51486;50.232;19.208;2024-01-15T03:41:25;3.73;;;2.00;;
64957;SDS011;51486;50.232;19.208;2024-01-15T03:43:50;5.20;;;2.60;;
64957;SDS011;51486;50.232;19.208;2024-01-15T03:46:15;3.33;;;1.70;;
64957;SDS011;51486;50.232;19.208;2024-01-15T03:48:41;4.00;;;2.30;;
64957;SDS011;51486;50.232;19.208;2024-01-15T03:51:06;4.63;;;2.43;;
64957;SDS011;51486;50.232;19.208;2024-01-15T03:53:31;4.37;;;2.03;;
64957;SDS011;51486;50.232;19.208;2024-01-15T03:55:57;4.63;;;2.33;;
64957;SDS011;51486;50.232;19.208;2024-01-15T03:58:22;6.93;;;2.50;;
64957;SDS011;51486;50.232;19.208;2024-01-15T04:00:48;3.93;;;2.00;;
64957;SDS011;51486;50.232;19.208;2024-01-15T04:03:13;3.67;;;2.10;;
64957;SDS011;51486;50.232;19.208;2024-01-15T04:05:38;1.97;;;1.60;;
64957;SDS011;51486;50.232;19.208;2024-01-15T04:08:04;8.20;;;2.97;;
64957;SDS011;51486;50.232;19.208;2024-01-15T04:10:29;4.23;;;1.93;;
64957;SDS011;51486;50.232;19.208;2024-01-15T04:12:55;6.60;;;3.93;;
64957;SDS011;51486;50.232;19.208;2024-01-15T04:15:20;6.40;;;2.60;;
64957;SDS011;51486;50.232;19.208;2024-01-15T04:17:46;6.70;;;3.40;;
64957;SDS011;51486;50.232;19.208;2024-01-15T04:20:11;8.10;;;3.23;;
64957;SDS011;51486;50.232;19.208;2024-01-15T04:22:36;6.07;;;2.90;;
64957;SDS011;51486;50.232;19.208;2024-01-15T04:25:02;4.90;;;2.73;;
64957;SDS011;51486;50.232;19.208;2024-01-15T04:27:28;10.37;;;4.13;;
64957;SDS011;51486;50.232;19.208;2024-01-15T04:29:53;6.67;;;2.67;;
64957;SDS011;51486;50.232;19.208;2024-01-15T04:32:19;5.93;;;2.53;;
64957;SDS011;51486;50.232;19.208;2024-01-15T04:34:45;7.10;;;2.20;;
64957;SDS011;51486;50.232;19.208;2024-01-15T04:37:11;8.20;;;3.30;;
64957;SDS011;51486;50.232;19.208;2024-01-15T04:39:36;7.07;;;3.30;;
64957;SDS011;51486;50.232;19.208;2024-01-15T04:42:02;6.27;;;3.07;;
64957;SDS011;51486;50.232;19.208;2024-01-15T04:44:28;5.70;;;3.13;;
64957;SDS011;51486;50.232;19.208;2024-01-15T04:46:53;11.40;;;3.63;;
64957;SDS011;51486;50.232;19.208;2024-01-15T04:49:19;4.63;;;2.60;;
64957;SDS011;51486;50.232;19.208;2024-01-15T04:51:44;8.90;;;3.17;;
64957;SDS011;51486;50.232;19.208;2024-01-15T04:54:09;5.83;;;2.50;;
64957;SDS011;51486;50.232;19.208;2024-01-15T04:56:35;6.77;;;3.27;;
64957;SDS011;51486;50.232;19.208;2024-01-15T04:59:00;8.63;;;3.10;;
64957;SDS011;51486;50.232;19.208;2024-01-15T05:01:25;6.47;;;3.00;;
64957;SDS011;51486;50.232;19.208;2024-01-15T05:03:56;5.27;;;2.73;;
64957;SDS011;51486;50.232;19.208;2024-01-15T05:06:21;6.30;;;3.20;;
64957;SDS011;51486;50.232;19.208;2024-01-15T05:08:46;7.43;;;3.20;;
64957;SDS011;51486;50.232;19.208;2024-01-15T05:11:12;8.67;;;3.93;;
64957;SDS011;51486;50.232;19.208;2024-01-15T05:13:37;5.77;;;3.20;;
64957;SDS011;51486;50.232;19.208;2024-01-15T05:16:02;8.27;;;3.00;;
64957;SDS011;51486;50.232;19.208;2024-01-15T05:18:28;4.77;;;2.27;;
64957;SDS011;51486;50.232;19.208;2024-01-15T05:20:53;7.87;;;2.90;;
64957;SDS011;51486;50.232;19.208;2024-01-15T05:23:19;9.40;;;3.57;;
64957;SDS011;51486;50.232;19.208;2024-01-15T05:25:44;7.40;;;3.20;;
64957;SDS011;51486;50.232;19.208;2024-01-15T05:28:09;7.43;;;3.83;;
64957;SDS011;51486;50.232;19.208;2024-01-15T05:30:35;9.33;;;3.70;;
64957;SDS011;51486;50.232;19.208;2024-01-15T05:33:00;5.13;;;2.90;;
64957;SDS011;51486;50.232;19.208;2024-01-15T05:35:26;5.33;;;2.47;;
64957;SDS011;51486;50.232;19.208;2024-01-15T05:37:51;6.63;;;3.30;;
64957;SDS011;51486;50.232;19.208;2024-01-15T05:40:17;10.73;;;4.60;;
64957;SDS011;51486;50.232;19.208;2024-01-15T05:42:42;12.30;;;5.37;;
64957;SDS011;51486;50.232;19.208;2024-01-15T05:45:07;9.30;;;3.53;;
64957;SDS011;51486;50.232;19.208;2024-01-15T05:47:33;6.57;;;3.43;;
64957;SDS011;51486;50.232;19.208;2024-01-15T05:50:00;7.43;;;3.27;;
64957;SDS011;51486;50.232;19.208;2024-01-15T05:52:25;11.30;;;4.10;;
64957;SDS011;51486;50.232;19.208;2024-01-15T05:54:51;21.07;;;8.07;;
64957;SDS011;51486;50.232;19.208;2024-01-15T05:57:16;22.03;;;6.47;;
64957;SDS011;51486;50.232;19.208;2024-01-15T05:59:42;10.60;;;4.13;;
64957;SDS011;51486;50.232;19.208;2024-01-15T06:02:08;11.03;;;4.13;;
64957;SDS011;51486;50.232;19.208;2024-01-15T06:04:33;8.10;;;4.10;;
64957;SDS011;51486;50.232;19.208;2024-01-15T06:06:58;8.83;;;3.70;;
64957;SDS011;51486;50.232;19.208;2024-01-15T06:09:24;9.53;;;4.73;;
64957;SDS011;51486;50.232;19.208;2024-01-15T06:11:49;11.37;;;4.30;;
64957;SDS011;51486;50.232;19.208;2024-01-15T06:14:14;7.37;;;3.33;;
64957;SDS011;51486;50.232;19.208;2024-01-15T06:16:40;7.33;;;3.67;;
64957;SDS011;51486;50.232;19.208;2024-01-15T06:19:05;11.83;;;3.93;;
64957;SDS011;51486;50.232;19.208;2024-01-15T06:21:30;12.03;;;4.33;;
64957;SDS011;51486;50.232;19.208;2024-01-15T06:23:56;7.37;;;4.07;;
64957;SDS011;51486;50.232;19.208;2024-01-15T06:26:22;14.17;;;5.77;;
64957;SDS011;51486;50.232;19.208;2024-01-15T06:28:47;14.23;;;6.87;;
64957;SDS011;51486;50.232;19.208;2024-01-15T06:31:13;15.00;;;5.97;;
64957;SDS011;51486;50.232;19.208;2024-01-15T06:33:38;31.67;;;11.97;;
64957;SDS011;51486;50.232;19.208;2024-01-15T06:36:04;24.20;;;8.70;;
64957;SDS011;51486;50.232;19.208;2024-01-15T06:38:30;16.93;;;7.10;;
64957;SDS011;51486;50.232;19.208;2024-01-15T06:40:56;11.33;;;5.50;;
64957;SDS011;51486;50.232;19.208;2024-01-15T06:43:21;10.30;;;4.30;;
64957;SDS011;51486;50.232;19.208;2024-01-15T06:45:47;10.73;;;4.63;;
64957;SDS011;51486;50.232;19.208;2024-01-15T06:48:12;14.20;;;6.23;;
64957;SDS011;51486;50.232;19.208;2024-01-15T06:50:39;6.13;;;3.70;;
64957;SDS011;51486;50.232;19.208;2024-01-15T06:53:05;10.93;;;3.87;;
64957;SDS011;51486;50.232;19.208;2024-01-15T06:55:30;9.07;;;3.73;;
64957;SDS011;51486;50.232;19.208;2024-01-15T06:57:56;9.20;;;3.80;;
64957;SDS011;51486;50.232;19.208;2024-01-15T07:00:21;10.57;;;4.40;;
64957;SDS011;51486;50.232;19.208;2024-01-15T07:02:47;7.77;;;3.90;;
64957;SDS011;51486;50.232;19.208;2024-01-15T07:05:12;6.03;;;3.07;;
64957;SDS011;51486;50.232;19.208;2024-01-15T07:07:37;9.27;;;3.83;;
64957;SDS011;51486;50.232;19.208;2024-01-15T07:10:03;8.37;;;4.20;;
64957;SDS011;51486;50.232;19.208;2024-01-15T07:12:29;9.70;;;4.43;;
64957;SDS011;51486;50.232;19.208;2024-01-15T07:14:55;7.90;;;4.13;;
64957;SDS011;51486;50.232;19.208;2024-01-15T07:17:21;9.90;;;4.00;;
64957;SDS011;51486;50.232;19.208;2024-01-15T07:19:46;9.33;;;3.87;;
64957;SDS011;51486;50.232;19.208;2024-01-15T07:22:12;9.33;;;3.83;;
64957;SDS011;51486;50.232;19.208;2024-01-15T07:24:38;8.83;;;4.00;;
64957;SDS011;51486;50.232;19.208;2024-01-15T07:27:03;6.57;;;3.40;;
64957;SDS011;51486;50.232;19.208;2024-01-15T07:29:29;8.67;;;3.63;;
64957;SDS011;51486;50.232;19.208;2024-01-15T07:31:55;8.23;;;3.23;;
64957;SDS011;51486;50.232;19.208;2024-01-15T07:34:20;7.57;;;3.73;;
64957;SDS011;51486;50.232;19.208;2024-01-15T07:36:47;6.70;;;3.40;;
64957;SDS011;51486;50.232;19.208;2024-01-15T07:39:12;12.73;;;4.43;;
64957;SDS011;51486;50.232;19.208;2024-01-15T07:41:38;9.33;;;3.47;;
64957;SDS011;51486;50.232;19.208;2024-01-15T07:44:04;12.37;;;4.03;;
64957;SDS011;51486;50.232;19.208;2024-01-15T07:46:30;8.00;;;3.60;;
64957;SDS011;51486;50.232;19.208;2024-01-15T07:48:55;8.23;;;3.63;;
64957;SDS011;51486;50.232;19.208;2024-01-15T07:51:22;6.93;;;3.27;;
64957;SDS011;51486;50.232;19.208;2024-01-15T07:53:53;12.00;;;4.57;;
64957;SDS011;51486;50.232;19.208;2024-01-15T07:56:18;11.67;;;4.67;;
64957;SDS011;51486;50.232;19.208;2024-01-15T07:58:44;8.20;;;4.17;;
64957;SDS011;51486;50.232;19.208;2024-01-15T08:01:09;17.27;;;5.23;;
64957;SDS011;51486;50.232;19.208;2024-01-15T08:03:35;10.80;;;4.77;;
64957;SDS011;51486;50.232;19.208;2024-01-15T08:06:00;8.70;;;4.17;;
64957;SDS011;51486;50.232;19.208;2024-01-15T08:08:25;11.77;;;4.47;;
64957;SDS011;51486;50.232;19.208;2024-01-15T08:10:54;46.43;;;14.13;;
64957;SDS011;51486;50.232;19.208;2024-01-15T08:13:19;23.13;;;9.27;;
64957;SDS011;51486;50.232;19.208;2024-01-15T08:15:45;15.73;;;6.50;;
64957;SDS011;51486;50.232;19.208;2024-01-15T08:18:11;17.00;;;6.87;;
64957;SDS011;51486;50.232;19.208;2024-01-15T08:20:36;25.53;;;8.17;;
64957;SDS011;51486;50.232;19.208;2024-01-15T08:23:02;15.70;;;5.70;;
64957;SDS011;51486;50.232;19.208;2024-01-15T08:25:27;18.57;;;7.13;;
64957;SDS011;51486;50.232;19.208;2024-01-15T08:27:53;14.40;;;6.63;;
64957;SDS011;51486;50.232;19.208;2024-01-15T08:30:18;12.77;;;5.63;;
64957;SDS011;51486;50.232;19.208;2024-01-15T08:32:45;12.23;;;5.80;;
64957;SDS011;51486;50.232;19.208;2024-01-15T08:35:10;15.50;;;5.93;;
64957;SDS011;51486;50.232;19.208;2024-01-15T08:37:36;13.73;;;5.43;;
64957;SDS011;51486;50.232;19.208;2024-01-15T08:40:02;9.50;;;4.40;;
64957;SDS011;51486;50.232;19.208;2024-01-15T08:42:28;10.30;;;4.87;;
64957;SDS011;51486;50.232;19.208;2024-01-15T08:44:54;10.63;;;5.37;;
64957;SDS011;51486;50.232;19.208;2024-01-15T08:47:19;9.27;;;4.23;;
64957;SDS011;51486;50.232;19.208;2024-01-15T08:49:45;11.17;;;4.83;;
64957;SDS011;51486;50.232;19.208;2024-01-15T08:52:11;12.40;;;5.50;;
64957;SDS011;51486;50.232;19.208;2024-01-15T08:54:37;14.23;;;5.63;;
64957;SDS011;51486;50.232;19.208;2024-01-15T08:57:02;15.37;;;5.90;;
64957;SDS011;51486;50.232;19.208;2024-01-15T08:59:28;13.70;;;7.10;;
64957;SDS011;51486;50.232;19.208;2024-01-15T09:01:53;13.93;;;6.10;;
64957;SDS011;51486;50.232;19.208;2024-01-15T09:04:19;13.97;;;6.80;;
64957;SDS011;51486;50.232;19.208;2024-01-15T09:06:45;17.33;;;6.27;;
64957;SDS011;51486;50.232;19.208;2024-01-15T09:09:14;12.80;;;6.20;;
64957;SDS011;51486;50.232;19.208;2024-01-15T09:11:40;14.73;;;5.67;;
64957;SDS011;51486;50.232;19.208;2024-01-15T09:14:05;14.83;;;6.80;;
64957;SDS011;51486;50.232;19.208;2024-01-15T09:16:31;14.73;;;5.77;;
64957;SDS011;51486;50.232;19.208;2024-01-15T09:18:56;14.87;;;5.97;;
64957;SDS011;51486;50.232;19.208;2024-01-15T09:21:22;17.50;;;7.00;;
64957;SDS011;51486;50.232;19.208;2024-01-15T09:23:49;14.27;;;6.50;;
64957;SDS011;51486;50.232;19.208;2024-01-15T09:26:14;12.60;;;5.80;;
64957;SDS011;51486;50.232;19.208;2024-01-15T09:28:40;12.57;;;6.27;;
64957;SDS011;51486;50.232;19.208;2024-01-15T09:31:05;17.10;;;7.23;;
64957;SDS011;51486;50.232;19.208;2024-01-15T09:33:31;16.40;;;6.97;;
64957;SDS011;51486;50.232;19.208;2024-01-15T09:35:56;14.80;;;6.07;;
64957;SDS011;51486;50.232;19.208;2024-01-15T09:38:21;17.27;;;6.47;;
64957;SDS011;51486;50.232;19.208;2024-01-15T09:40:49;17.13;;;6.90;;
64957;SDS011;51486;50.232;19.208;2024-01-15T09:43:14;13.10;;;6.20;;
64957;SDS011;51486;50.232;19.208;2024-01-15T09:45:41;21.57;;;6.90;;
64957;SDS011;51486;50.232;19.208;2024-01-15T09:48:07;17.13;;;7.30;;
64957;SDS011;51486;50.232;19.208;2024-01-15T09:50:33;15.53;;;6.67;;
64957;SDS011;51486;50.232;19.208;2024-01-15T09:52:59;13.07;;;6.40;;
64957;SDS011;51486;50.232;19.208;2024-01-15T09:55:24;13.67;;;6.23;;
64957;SDS011;51486;50.232;19.208;2024-01-15T09:57:50;13.27;;;5.90;;
64957;SDS011;51486;50.232;19.208;2024-01-15T10:00:19;16.53;;;5.93;;
64957;SDS011;51486;50.232;19.208;2024-01-15T10:02:45;14.83;;;5.27;;
64957;SDS011;51486;50.232;19.208;2024-01-15T10:05:11;14.97;;;6.77;;
64957;SDS011;51486;50.232;19.208;2024-01-15T10:07:37;13.93;;;7.00;;
64957;SDS011;51486;50.232;19.208;2024-01-15T10:10:03;14.67;;;6.30;;
64957;SDS011;51486;50.232;19.208;2024-01-15T10:12:28;14.40;;;6.07;;
64957;SDS011;51486;50.232;19.208;2024-01-15T10:14:55;16.37;;;7.57;;
64957;SDS011;51486;50.232;19.208;2024-01-15T10:17:21;19.77;;;6.53;;
64957;SDS011;51486;50.232;19.208;2024-01-15T10:19:46;11.60;;;5.83;;
64957;SDS011;51486;50.232;19.208;2024-01-15T10:22:13;12.90;;;6.53;;
64957;SDS011;51486;50.232;19.208;2024-01-15T10:24:40;14.77;;;6.93;;
64957;SDS011;51486;50.232;19.208;2024-01-15T10:27:09;13.90;;;6.00;;
64957;SDS011;51486;50.232;19.208;2024-01-15T10:29:35;10.23;;;5.70;;
64957;SDS011;51486;50.232;19.208;2024-01-15T10:32:01;10.90;;;5.70;;
64957;SDS011;51486;50.232;19.208;2024-01-15T10:34:27;12.70;;;5.40;;
64957;SDS011;51486;50.232;19.208;2024-01-15T10:36:53;13.03;;;6.40;;
64957;SDS011;51486;50.232;19.208;2024-01-15T10:39:23;14.50;;;7.13;;
64957;SDS011;51486;50.232;19.208;2024-01-15T10:41:49;13.30;;;6.07;;
64957;SDS011;51486;50.232;19.208;2024-01-15T10:44:18;12.37;;;5.00;;
64957;SDS011;51486;50.232;19.208;2024-01-15T10:46:44;16.27;;;6.53;;
64957;SDS011;51486;50.232;19.208;2024-01-15T10:49:13;11.17;;;5.23;;
64957;SDS011;51486;50.232;19.208;2024-01-15T10:51:39;13.00;;;6.17;;
64957;SDS011;51486;50.232;19.208;2024-01-15T10:54:05;16.33;;;5.93;;
64957;SDS011;51486;50.232;19.208;2024-01-15T10:56:32;18.63;;;6.80;;
64957;SDS011;51486;50.232;19.208;2024-01-15T10:59:00;16.37;;;6.63;;
64957;SDS011;51486;50.232;19.208;2024-01-15T11:01:25;13.83;;;6.47;;
64957;SDS011;51486;50.232;19.208;2024-01-15T11:03:51;18.37;;;6.23;;
64957;SDS011;51486;50.232;19.208;2024-01-15T11:06:19;11.93;;;6.23;;
64957;SDS011;51486;50.232;19.208;2024-01-15T11:08:49;12.73;;;6.10;;
64957;SDS011;51486;50.232;19.208;2024-01-15T11:11:17;19.07;;;6.70;;
64957;SDS011;51486;50.232;19.208;2024-01-15T11:13:43;17.27;;;6.43;;
64957;SDS011;51486;50.232;19.208;2024-01-15T11:16:12;16.57;;;6.80;;
64957;SDS011;51486;50.232;19.208;2024-01-15T11:19:21;16.63;;;7.43;;
64957;SDS011;51486;50.232;19.208;2024-01-15T11:21:28;20.17;;;6.83;;
64957;SDS011;51486;50.232;19.208;2024-01-15T11:23:58;19.63;;;7.93;;
64957;SDS011;51486;50.232;19.208;2024-01-15T11:29:03;17.37;;;6.13;;
64957;SDS011;51486;50.232;19.208;2024-01-15T11:34:04;14.23;;;6.37;;
64957;SDS011;51486;50.232;19.208;2024-01-15T11:41:58;16.27;;;7.33;;
64957;SDS011;51486;50.232;19.208;2024-01-15T11:44:24;13.57;;;6.60;;
64957;SDS011;51486;50.232;19.208;2024-01-15T11:47:03;12.37;;;5.77;;
64957;SDS011;51486;50.232;19.208;2024-01-15T11:52:01;14.90;;;7.10;;
64957;SDS011;51486;50.232;19.208;2024-01-15T11:54:27;13.20;;;5.67;;
64957;SDS011;51486;50.232;19.208;2024-01-15T11:57:00;14.17;;;5.87;;
64957;SDS011;51486;50.232;19.208;2024-01-15T11:59:33;15.23;;;6.63;;
64957;SDS011;51486;50.232;19.208;2024-01-15T12:01:58;14.90;;;7.00;;
64957;SDS011;51486;50.232;19.208;2024-01-15T12:04:23;10.17;;;4.57;;
64957;SDS011;51486;50.232;19.208;2024-01-15T12:06:49;17.10;;;8.50;;
64957;SDS011;51486;50.232;19.208;2024-01-15T12:09:14;22.40;;;8.67;;
64957;SDS011;51486;50.232;19.208;2024-01-15T12:11:40;18.83;;;7.87;;
64957;SDS011;51486;50.232;19.208;2024-01-15T12:14:10;18.80;;;7.67;;
64957;SDS011;51486;50.232;19.208;2024-01-15T12:16:35;12.63;;;6.77;;
64957;SDS011;51486;50.232;19.208;2024-01-15T12:19:01;15.83;;;8.10;;
64957;SDS011;51486;50.232;19.208;2024-01-15T12:21:26;18.77;;;7.90;;
64957;SDS011;51486;50.232;19.208;2024-01-15T12:23:52;19.63;;;9.07;;
64957;SDS011;51486;50.232;19.208;2024-01-15T12:26:17;16.47;;;6.90;;
64957;SDS011;51486;50.232;19.208;2024-01-15T12:28:43;13.97;;;6.63;;
64957;SDS011;51486;50.232;19.208;2024-01-15T12:31:08;23.40;;;8.37;;
64957;SDS011;51486;50.232;19.208;2024-01-15T12:33:33;16.77;;;7.67;;
64957;SDS011;51486;50.232;19.208;2024-01-15T12:35:59;15.27;;;7.20;;
64957;SDS011;51486;50.232;19.208;2024-01-15T12:38:24;17.00;;;7.97;;
64957;SDS011;51486;50.232;19.208;2024-01-15T12:40:50;14.60;;;7.00;;
64957;SDS011;51486;50.232;19.208;2024-01-15T12:43:16;15.27;;;7.00;;
64957;SDS011;51486;50.232;19.208;2024-01-15T12:45:42;14.60;;;6.37;;
64957;SDS011;51486;50.232;19.208;2024-01-15T12:48:08;10.87;;;6.00;;
64957;SDS011;51486;50.232;19.208;2024-01-15T12:50:34;15.27;;;7.57;;
64957;SDS011;51486;50.232;19.208;2024-01-15T12:53:01;19.13;;;7.40;;
64957;SDS011;51486;50.232;19.208;2024-01-15T12:55:26;13.93;;;6.03;;
64957;SDS011;51486;50.232;19.208;2024-01-15T12:57:52;12.13;;;6.63;;
64957;SDS011;51486;50.232;19.208;2024-01-15T13:00:19;12.90;;;6.97;;
64957;SDS011;51486;50.232;19.208;2024-01-15T13:02:45;16.70;;;7.27;;
64957;SDS011;51486;50.232;19.208;2024-01-15T13:05:11;22.43;;;8.37;;
64957;SDS011;51486;50.232;19.208;2024-01-15T13:07:37;19.70;;;8.40;;
64957;SDS011;51486;50.232;19.208;2024-01-15T13:10:02;15.93;;;7.50;;
64957;SDS011;51486;50.232;19.208;2024-01-15T13:12:28;15.10;;;8.20;;
64957;SDS011;51486;50.232;19.208;2024-01-15T13:14:53;15.23;;;7.37;;
64957;SDS011;51486;50.232;19.208;2024-01-15T13:17:19;16.13;;;7.13;;
64957;SDS011;51486;50.232;19.208;2024-01-15T13:19:46;20.67;;;6.90;;
64957;SDS011;51486;50.232;19.208;2024-01-15T13:22:11;21.83;;;8.33;;
64957;SDS011;51486;50.232;19.208;2024-01-15T13:24:39;22.27;;;8.27;;
64957;SDS011;51486;50.232;19.208;2024-01-15T13:27:04;18.23;;;8.00;;
64957;SDS011;51486;50.232;19.208;2024-01-15T13:29:30;15.60;;;7.13;;
64957;SDS011;51486;50.232;19.208;2024-01-15T13:31:56;20.13;;;8.20;;
64957;SDS011;51486;50.232;19.208;2024-01-15T13:34:22;20.87;;;8.97;;
64957;SDS011;51486;50.232;19.208;2024-01-15T13:36:48;15.87;;;7.53;;
64957;SDS011;51486;50.232;19.208;2024-01-15T13:39:14;22.80;;;7.90;;
64957;SDS011;51486;50.232;19.208;2024-01-15T13:41:44;19.33;;;7.47;;
64957;SDS011;51486;50.232;19.208;2024-01-15T13:44:10;15.33;;;7.67;;
64957;SDS011;51486;50.232;19.208;2024-01-15T13:46:36;17.53;;;8.30;;
64957;SDS011;51486;50.232;19.208;2024-01-15T13:49:01;23.43;;;9.37;;
64957;SDS011;51486;50.232;19.208;2024-01-15T13:51:27;17.43;;;7.33;;
64957;SDS011;51486;50.232;19.208;2024-01-15T13:53:52;15.20;;;7.20;;
64957;SDS011;51486;50.232;19.208;2024-01-15T13:56:18;22.97;;;7.50;;
64957;SDS011;51486;50.232;19.208;2024-01-15T13:58:43;20.93;;;7.63;;
64957;SDS011;51486;50.232;19.208;2024-01-15T14:01:09;14.93;;;7.13;;
64957;SDS011;51486;50.232;19.208;2024-01-15T14:03:35;9.73;;;5.00;;
64957;SDS011;51486;50.232;19.208;2024-01-15T14:06:01;21.10;;;6.93;;
64957;SDS011;51486;50.232;19.208;2024-01-15T14:08:28;14.00;;;6.57;;
64957;SDS011;51486;50.232;19.208;2024-01-15T14:10:54;16.40;;;7.20;;
64957;SDS011;51486;50.232;19.208;2024-01-15T14:13:20;16.07;;;7.07;;
64957;SDS011;51486;50.232;19.208;2024-01-15T14:15:46;13.30;;;4.67;;
64957;SDS011;51486;50.232;19.208;2024-01-15T14:18:13;15.37;;;5.30;;
64957;SDS011;51486;50.232;19.208;2024-01-15T14:20:39;14.17;;;5.93;;
64957;SDS011;51486;50.232;19.208;2024-01-15T14:23:04;13.60;;;6.13;;
64957;SDS011;51486;50.232;19.208;2024-01-15T14:25:29;14.37;;;6.20;;
64957;SDS011;51486;50.232;19.208;2024-01-15T14:27:55;20.13;;;6.50;;
64957;SDS011;51486;50.232;19.208;2024-01-15T14:30:20;17.60;;;7.10;;